createdAt,value
2019-06-20T03:47:47.450Z,3.37
2019-06-20T03:48:33.807Z,2.90
2019-06-20T03:49:20.440Z,3.30
2019-06-20T03:50:07.925Z,4.08
2019-06-20T03:50:54.573Z,4.20
2019-06-20T03:51:40.908Z,3.75
2019-06-20T03:52:27.341Z,3.70
2019-06-20T03:53:13.643Z,4.72
2019-06-20T03:53:59.589Z,3.83
2019-06-20T03:54:45.608Z,7.05
2019-06-20T03:55:33.012Z,5.60
2019-06-20T03:56:19.508Z,4.90
2019-06-20T03:57:06.005Z,5.20
2019-06-20T03:57:52.007Z,4.75
2019-06-20T03:58:38.700Z,4.87
2019-06-20T03:59:25.174Z,5.22
2019-06-20T04:00:11.446Z,4.58
2019-06-20T04:00:57.913Z,3.80
2019-06-20T04:01:44.247Z,3.15
2019-06-20T04:02:30.528Z,3.25
2019-06-20T04:03:17.166Z,3.05
2019-06-20T04:04:03.088Z,2.60
2019-06-20T04:04:49.421Z,2.60
2019-06-20T04:05:35.831Z,3.25
2019-06-20T04:06:21.902Z,2.85
2019-06-20T04:07:08.309Z,3.00
2019-06-20T04:07:54.461Z,4.45
2019-06-20T04:08:40.701Z,6.87
2019-06-20T04:09:26.851Z,5.28
2019-06-20T04:10:12.788Z,4.50
2019-06-20T04:10:59.185Z,4.05
2019-06-20T04:11:45.663Z,3.80
2019-06-20T04:12:31.983Z,4.37
2019-06-20T04:13:18.142Z,3.45
2019-06-20T04:14:04.060Z,3.12
2019-06-20T04:14:50.220Z,2.80
2019-06-20T04:15:36.540Z,3.40
2019-06-20T04:16:22.610Z,2.83
2019-06-20T04:17:08.750Z,2.47
2019-06-20T04:17:54.700Z,2.40
2019-06-20T04:18:40.460Z,2.30
2019-06-20T04:19:26.866Z,2.60
2019-06-20T04:20:13.100Z,2.20
2019-06-20T04:20:59.582Z,2.20
2019-06-20T04:21:45.900Z,2.45
2019-06-20T04:22:31.900Z,2.30
2019-06-20T04:23:18.066Z,2.45
2019-06-20T04:24:04.302Z,2.30
2019-06-20T04:24:50.140Z,2.47
2019-06-20T04:25:36.220Z,2.83
2019-06-20T04:26:22.540Z,2.35
2019-06-20T04:27:08.883Z,2.45
2019-06-20T04:27:55.040Z,2.50
2019-06-20T04:28:41.501Z,2.50
2019-06-20T04:29:27.823Z,2.60
2019-06-20T04:30:13.852Z,2.72
2019-06-20T04:31:00.540Z,2.55
2019-06-20T04:31:46.863Z,2.90
2019-06-20T04:32:33.180Z,2.50
2019-06-20T04:33:18.784Z,2.85
2019-06-20T04:34:05.075Z,2.45
2019-06-20T04:34:51.155Z,2.40
2019-06-20T04:35:37.555Z,2.55
2019-06-20T04:36:23.565Z,2.20
2019-06-20T04:37:09.877Z,2.42
2019-06-20T04:37:55.850Z,2.60
2019-06-20T04:38:41.674Z,2.47
2019-06-20T04:39:27.861Z,2.30
2019-06-20T04:40:14.266Z,2.50
2019-06-20T04:41:00.660Z,2.42
2019-06-20T04:41:47.040Z,2.25
2019-06-20T04:42:33.381Z,2.10
2019-06-20T04:43:19.381Z,2.10
2019-06-20T04:44:05.690Z,2.20
2019-06-20T04:44:52.498Z,2.50
2019-06-20T04:45:38.695Z,2.17
2019-06-20T04:46:25.008Z,2.40
2019-06-20T04:47:10.752Z,3.20
2019-06-20T04:47:56.892Z,3.50
2019-06-20T04:48:43.462Z,3.45
2019-06-20T04:49:28.836Z,3.30
2019-06-20T04:58:03.990Z,2.27
2019-06-20T05:04:24.937Z,2.05
2019-06-20T05:05:09.342Z,2.15
2019-06-20T05:05:53.374Z,2.30
2019-06-20T05:06:37.656Z,3.25
2019-06-20T05:07:22.174Z,6.03
2019-06-20T05:08:06.261Z,13.48
2019-06-20T05:08:50.575Z,11.40
2019-06-20T05:09:34.965Z,11.48
2019-06-20T05:10:19.697Z,10.60
2019-06-20T05:15:06.899Z,3.98
2019-06-20T05:15:53.048Z,3.45
2019-06-20T05:16:36.577Z,3.27
2019-06-20T05:17:20.812Z,3.75
2019-06-20T05:18:05.228Z,2.70
2019-06-20T05:18:49.694Z,2.70
2019-06-20T05:19:34.178Z,2.60
2019-06-20T05:20:18.476Z,2.50
2019-06-20T05:21:02.706Z,2.40
2019-06-20T05:25:02.004Z,3.05
2019-06-20T05:25:47.816Z,2.35
2019-06-20T05:26:33.359Z,2.83
2019-06-20T05:27:18.744Z,2.52
2019-06-20T05:28:50.487Z,2.80
2019-06-20T05:29:36.086Z,2.50
2019-06-20T05:30:21.931Z,2.55
2019-06-20T05:31:07.442Z,2.52
2019-06-20T05:39:04.399Z,2.80
2019-06-20T05:39:50.078Z,2.30
2019-06-20T05:40:37.244Z,2.25
2019-06-20T05:41:22.352Z,2.20
2019-06-20T05:49:20.767Z,2.37
2019-06-20T05:54:54.590Z,2.60
2019-06-20T05:56:05.480Z,2.35
2019-06-20T05:59:11.634Z,2.05
2019-06-20T05:59:57.310Z,2.12
2019-06-20T06:00:43.002Z,2.40
2019-06-20T06:01:29.325Z,2.40
2019-06-20T06:02:15.040Z,2.37
2019-06-20T06:03:00.569Z,2.42
2019-06-20T06:03:46.160Z,2.25
2019-06-20T06:04:31.839Z,2.15
2019-06-20T06:05:17.445Z,2.05
2019-06-20T06:06:02.966Z,2.17
2019-06-20T06:07:23.051Z,2.30
2019-06-20T06:08:08.898Z,2.20
2019-06-20T06:08:54.268Z,2.10
2019-06-20T06:09:39.446Z,2.15
2019-06-20T06:25:25.321Z,2.05
2019-06-20T06:26:10.674Z,1.95
2019-06-20T06:26:59.702Z,2.02
2019-06-20T06:27:42.436Z,2.30
2019-06-20T06:28:27.977Z,2.17
2019-06-20T06:29:13.428Z,2.05
2019-06-20T06:29:58.738Z,2.02
2019-06-20T06:30:44.299Z,2.05
2019-06-20T06:31:29.667Z,2.30
2019-06-20T06:32:15.337Z,2.05
2019-06-20T06:33:00.477Z,2.15
2019-06-20T06:33:45.897Z,2.37
2019-06-20T06:34:31.533Z,2.00
2019-06-20T06:35:17.311Z,2.00
2019-06-20T06:36:02.825Z,1.95
2019-06-20T06:36:48.237Z,2.20
2019-06-20T06:37:33.857Z,2.20
2019-06-20T06:38:22.065Z,2.00
2019-06-20T06:39:06.808Z,2.00
2019-06-20T06:39:52.365Z,2.33
2019-06-20T06:40:37.668Z,2.10
2019-06-20T06:41:23.132Z,2.12
2019-06-20T06:42:08.576Z,2.17
2019-06-20T06:42:54.109Z,2.00
2019-06-20T06:43:41.928Z,2.33
2019-06-20T06:44:25.977Z,2.22
2019-06-20T06:45:12.069Z,1.90
2019-06-20T06:45:57.695Z,1.90
2019-06-20T06:46:47.241Z,1.95
2019-06-20T06:47:29.561Z,2.10
2019-06-20T06:48:15.147Z,2.35
2019-06-20T06:49:00.757Z,2.05
2019-06-20T06:49:46.300Z,2.00
2019-06-20T06:50:31.912Z,2.27
2019-06-20T06:51:17.516Z,2.33
2019-06-20T06:52:02.815Z,1.80
2019-06-20T06:52:48.505Z,2.10
2019-06-20T06:53:34.207Z,1.82
2019-06-20T06:54:19.745Z,1.80
2019-06-20T06:55:05.704Z,2.00
2019-06-20T06:55:51.281Z,2.15
2019-06-20T06:56:36.999Z,1.90
2019-06-20T06:57:22.437Z,1.90
2019-06-20T06:58:07.975Z,2.30
2019-06-20T06:58:53.596Z,1.98
2019-06-20T06:59:39.123Z,1.95
2019-06-20T07:00:24.663Z,2.05
2019-06-20T07:01:10.385Z,2.15
2019-06-20T07:01:55.976Z,2.02
2019-06-20T07:02:41.493Z,2.10
2019-06-20T07:03:27.198Z,2.10
2019-06-20T07:04:12.875Z,2.00
2019-06-20T07:04:58.419Z,2.25
2019-06-20T07:05:44.044Z,2.10
2019-06-20T07:06:29.658Z,1.85
2019-06-20T07:07:15.272Z,1.95
2019-06-20T07:08:00.694Z,2.17
2019-06-20T07:08:46.493Z,1.87
2019-06-20T07:09:35.249Z,2.05
2019-06-20T07:10:19.313Z,2.10
2019-06-20T07:11:04.839Z,1.87
2019-06-20T07:11:50.293Z,2.05
2019-06-20T07:12:35.917Z,2.10
2019-06-20T07:13:21.686Z,2.00
2019-06-20T07:14:07.147Z,2.00
2019-06-20T07:14:52.765Z,1.90
2019-06-20T07:15:38.372Z,2.15
2019-06-20T07:16:23.874Z,1.87
2019-06-20T07:17:09.508Z,2.00
2019-06-20T07:17:55.075Z,2.00
2019-06-20T07:18:40.511Z,2.00
2019-06-20T07:19:26.119Z,2.08
2019-06-20T07:20:15.060Z,2.08
2019-06-20T07:20:58.488Z,1.92
2019-06-20T07:21:44.016Z,2.15
2019-06-20T07:22:29.633Z,2.02
2019-06-20T07:23:15.327Z,2.00
2019-06-20T07:24:01.022Z,2.40
2019-06-20T07:24:46.627Z,2.17
2019-06-20T07:25:32.323Z,2.08
2019-06-20T07:26:18.001Z,2.05
2019-06-20T07:27:03.696Z,2.00
2019-06-20T07:27:49.645Z,2.20
2019-06-20T07:28:35.155Z,2.15
2019-06-20T07:29:20.628Z,2.27
2019-06-20T07:30:07.073Z,2.12
2019-06-20T07:30:52.726Z,2.10
2019-06-20T07:31:38.334Z,2.20
2019-06-20T07:32:23.881Z,2.00
2019-06-20T07:33:09.489Z,1.90
2019-06-20T07:33:54.859Z,2.27
2019-06-20T07:34:40.637Z,2.20
2019-06-20T07:35:26.411Z,2.33
2019-06-20T07:36:12.016Z,2.10
2019-06-20T07:36:57.486Z,2.00
2019-06-20T07:37:42.865Z,2.33
2019-06-20T07:38:28.487Z,1.98
2019-06-20T07:39:13.947Z,1.90
2019-06-20T07:39:59.297Z,2.00
2019-06-20T07:40:44.680Z,2.20
2019-06-20T07:41:30.351Z,2.22
2019-06-20T07:42:15.741Z,2.58
2019-06-20T07:43:01.124Z,2.35
2019-06-20T07:43:46.670Z,2.17
2019-06-20T07:44:32.129Z,2.05
2019-06-20T07:45:17.673Z,2.20
2019-06-20T07:46:03.373Z,2.30
2019-06-20T07:46:48.901Z,2.40
2019-06-20T07:47:34.670Z,2.25
2019-06-20T07:48:20.188Z,2.50
2019-06-20T07:49:05.758Z,2.42
2019-06-20T07:49:51.283Z,2.20
2019-06-20T07:50:39.329Z,2.30
2019-06-20T07:51:23.367Z,2.40
2019-06-20T07:52:08.993Z,2.12
2019-06-20T07:53:02.069Z,2.45
2019-06-20T07:53:41.194Z,2.30
2019-06-20T07:54:26.962Z,2.30
2019-06-20T07:55:12.655Z,2.60
2019-06-20T07:55:57.966Z,2.40
2019-06-20T07:56:43.651Z,2.42
2019-06-20T07:57:29.287Z,2.70
2019-06-20T07:58:14.795Z,2.52
2019-06-20T07:59:00.503Z,2.30
2019-06-20T07:59:46.035Z,2.42
2019-06-20T08:00:31.672Z,2.45
2019-06-20T08:01:17.268Z,2.50
2019-06-20T08:02:02.804Z,2.20
2019-06-20T08:02:48.328Z,2.20
2019-06-20T08:03:33.860Z,2.40
2019-06-20T08:04:19.549Z,2.37
2019-06-20T08:05:04.927Z,2.60
2019-06-20T08:05:50.543Z,2.40
2019-06-20T08:06:35.995Z,2.30
2019-06-20T08:07:21.601Z,2.10
2019-06-20T08:08:07.055Z,2.42
2019-06-20T08:08:52.674Z,2.50
2019-06-20T08:09:44.805Z,2.50
2019-06-20T08:10:25.007Z,2.47
2019-06-20T08:11:10.692Z,2.37
2019-06-20T08:11:56.110Z,2.55
2019-06-20T08:12:41.437Z,2.75
2019-06-20T08:13:26.975Z,2.47
2019-06-20T08:14:12.508Z,2.40
2019-06-20T08:15:13.749Z,2.37
2019-06-20T08:15:44.367Z,2.47
2019-06-20T08:16:30.049Z,2.25
2019-06-20T08:17:15.737Z,2.90
2019-06-20T08:18:01.113Z,2.30
2019-06-20T08:18:46.677Z,2.60
2019-06-20T08:19:32.054Z,2.60
2019-06-20T08:20:17.623Z,2.60
2019-06-20T08:21:03.442Z,2.77
2019-06-20T08:21:49.087Z,2.85
2019-06-20T08:22:34.816Z,2.92
2019-06-20T08:23:20.631Z,2.60
2019-06-20T08:24:06.250Z,2.75
2019-06-20T08:24:53.234Z,2.60
2019-06-20T08:25:38.743Z,2.75
2019-06-20T08:26:24.630Z,2.70
2019-06-20T08:27:10.381Z,2.80
2019-06-20T08:27:57.498Z,2.70
2019-06-20T08:28:42.765Z,2.83
2019-06-20T08:29:28.494Z,2.70
2019-06-20T08:30:14.199Z,2.58
2019-06-20T08:31:00.529Z,3.15
2019-06-20T08:31:46.388Z,2.90
2019-06-20T08:32:32.272Z,2.80
2019-06-20T08:33:17.995Z,3.20
2019-06-20T08:34:04.352Z,2.85
2019-06-20T08:34:50.564Z,2.90
2019-06-20T08:35:36.428Z,3.20
2019-06-20T08:36:22.140Z,2.90
2019-06-20T08:37:07.951Z,2.65
2019-06-20T08:37:53.464Z,2.85
2019-06-20T08:38:39.049Z,3.00
2019-06-20T08:39:25.025Z,3.27
2019-06-20T08:40:10.771Z,3.20
2019-06-20T08:40:57.026Z,3.72
2019-06-20T08:41:42.989Z,3.50
2019-06-20T08:42:28.545Z,3.37
2019-06-20T08:43:14.014Z,3.70
2019-06-20T08:43:59.815Z,3.62
2019-06-20T08:44:45.356Z,3.47
2019-06-20T08:45:31.870Z,3.70
2019-06-20T08:46:17.478Z,3.60
2019-06-20T08:47:03.829Z,3.62
2019-06-20T08:47:49.652Z,3.30
2019-06-20T08:48:35.085Z,3.65
2019-06-20T08:49:20.772Z,3.58
2019-06-20T08:50:06.965Z,3.45
2019-06-20T08:50:52.262Z,3.42
2019-06-20T08:51:37.865Z,3.47
2019-06-20T08:52:23.469Z,3.95
2019-06-20T08:53:09.149Z,3.95
2019-06-20T08:53:55.733Z,3.47
2019-06-20T08:54:41.401Z,4.08
2019-06-20T08:55:30.184Z,3.55
2019-06-20T08:56:15.838Z,3.10
2019-06-20T08:57:01.546Z,3.70
2019-06-20T08:57:47.535Z,3.70
2019-06-20T08:58:33.304Z,3.58
2019-06-20T08:59:24.261Z,3.30
2019-06-20T09:00:51.571Z,3.92
2019-06-20T09:01:37.540Z,4.05
2019-06-20T09:02:23.441Z,3.90
2019-06-20T09:03:09.258Z,3.60
2019-06-20T09:03:55.668Z,3.85
2019-06-20T09:04:41.337Z,3.90
2019-06-20T09:05:29.535Z,3.92
2019-06-20T09:06:13.652Z,3.55
2019-06-20T09:07:00.607Z,4.12
2019-06-20T09:07:45.986Z,3.80
2019-06-20T09:08:31.841Z,3.98
2019-06-20T09:09:17.254Z,3.20
2019-06-20T09:10:04.174Z,4.12
2019-06-20T09:10:49.441Z,3.72
2019-06-20T09:11:35.219Z,3.92
2019-06-20T09:12:20.769Z,3.77
2019-06-20T09:13:06.439Z,3.90
2019-06-20T09:13:53.784Z,3.55
2019-06-20T09:14:38.394Z,4.00
2019-06-20T09:15:24.428Z,3.98
2019-06-20T09:16:23.851Z,3.90
2019-06-20T09:16:56.584Z,3.58
2019-06-20T09:17:41.988Z,3.90
2019-06-20T09:18:27.603Z,3.72
2019-06-20T09:19:12.908Z,3.60
2019-06-20T09:19:58.302Z,3.77
2019-06-20T09:20:43.920Z,3.77
2019-06-20T09:21:29.546Z,3.80
2019-06-20T09:22:15.000Z,4.20
2019-06-20T09:23:01.081Z,3.85
2019-06-20T09:23:47.088Z,3.87
2019-06-20T09:24:32.638Z,3.80
2019-06-20T09:25:18.379Z,4.00
2019-06-20T09:26:03.903Z,3.80
2019-06-20T09:26:51.102Z,3.62
2019-06-20T09:27:36.287Z,3.87
2019-06-20T09:28:22.084Z,3.90
2019-06-20T09:29:07.567Z,3.85
2019-06-20T09:29:53.286Z,4.00
2019-06-20T09:30:39.692Z,3.80
2019-06-20T09:31:25.732Z,4.20
2019-06-20T09:32:11.196Z,3.70
2019-06-20T09:32:57.747Z,4.10
2019-06-20T09:33:43.504Z,4.42
2019-06-20T09:34:28.898Z,4.10
2019-06-20T09:35:14.442Z,3.72
2019-06-20T09:35:59.976Z,3.95
2019-06-20T09:36:45.468Z,3.95
2019-06-20T09:37:31.087Z,3.90
2019-06-20T09:38:16.723Z,3.87
2019-06-20T09:39:03.754Z,4.08
2019-06-20T09:39:51.586Z,4.12
2019-06-20T09:40:36.105Z,3.95
2019-06-20T09:41:21.659Z,4.00
2019-06-20T09:42:07.038Z,3.87
2019-06-20T09:42:52.943Z,3.75
2019-06-20T09:43:38.537Z,3.92
2019-06-20T09:44:24.005Z,3.72
2019-06-20T09:45:10.264Z,3.95
2019-06-20T09:45:56.079Z,3.90
2019-06-20T09:46:41.858Z,4.17
2019-06-20T09:47:27.554Z,3.90
2019-06-20T09:48:13.092Z,3.85
2019-06-20T09:48:58.836Z,3.50
2019-06-20T09:49:44.389Z,3.90
2019-06-20T09:50:29.865Z,3.80
2019-06-20T09:51:15.563Z,3.80
2019-06-20T09:52:01.004Z,4.20
2019-06-20T09:52:49.785Z,4.00
2019-06-20T09:53:33.102Z,4.10
2019-06-20T09:54:18.571Z,4.00
2019-06-20T09:55:04.048Z,4.05
2019-06-20T09:55:51.658Z,4.17
2019-06-20T09:56:37.496Z,3.98
2019-06-20T09:57:23.059Z,4.33
2019-06-20T09:58:08.651Z,4.03
2019-06-20T09:58:55.283Z,4.35
2019-06-20T09:59:53.393Z,4.10
2019-06-20T10:00:28.034Z,3.62
2019-06-20T10:01:13.918Z,3.90
2019-06-20T10:01:59.292Z,3.90
2019-06-20T10:02:46.845Z,3.98
2019-06-20T10:03:31.838Z,4.25
2019-06-20T10:04:17.444Z,3.85
2019-06-20T10:05:03.416Z,3.95
2019-06-20T10:05:50.380Z,3.50
2019-06-20T10:06:35.827Z,4.00
2019-06-20T10:07:21.693Z,3.85
2019-06-20T10:08:07.332Z,3.83
2019-06-20T10:08:52.803Z,3.75
2019-06-20T10:09:38.678Z,4.28
2019-06-20T10:10:25.035Z,3.70
2019-06-20T10:11:10.527Z,3.77
2019-06-20T10:11:56.103Z,3.90
2019-06-20T10:12:41.868Z,4.20
2019-06-20T10:13:27.500Z,4.05
2019-06-20T10:14:13.379Z,3.98
2019-06-20T10:14:59.267Z,3.47
2019-06-20T10:15:44.919Z,4.00
2019-06-20T10:16:44.990Z,3.45
2019-06-20T10:17:18.234Z,4.12
2019-06-20T10:18:03.615Z,3.70
2019-06-20T10:18:50.073Z,3.83
2019-06-20T10:19:35.596Z,3.67
2019-06-20T10:20:21.043Z,4.10
2019-06-20T10:21:06.775Z,3.90
2019-06-20T10:21:52.071Z,3.67
2019-06-20T10:22:37.549Z,3.80
2019-06-20T10:23:23.099Z,3.50
2019-06-20T10:24:08.645Z,3.55
2019-06-20T10:24:54.153Z,4.00
2019-06-20T10:25:39.602Z,3.58
2019-06-20T10:26:25.121Z,3.95
2019-06-20T10:27:10.522Z,3.75
2019-06-20T10:27:55.825Z,4.05
2019-06-20T10:28:41.219Z,3.70
2019-06-20T10:29:26.697Z,3.60
2019-06-20T10:30:14.563Z,3.45
2019-06-20T10:30:59.013Z,3.70
2019-06-20T10:31:47.400Z,3.58
2019-06-20T10:32:32.523Z,3.80
2019-06-20T10:33:18.293Z,3.87
2019-06-20T10:34:03.718Z,3.72
2019-06-20T10:34:50.516Z,3.55
2019-06-20T10:35:36.189Z,4.45
2019-06-20T10:36:21.825Z,3.75
2019-06-20T10:37:07.606Z,3.60
2019-06-20T10:37:53.334Z,4.05
2019-06-20T10:38:39.043Z,3.40
2019-06-20T10:39:24.752Z,3.80
2019-06-20T10:40:11.411Z,3.90
2019-06-20T10:40:59.842Z,3.70
2019-06-20T10:41:45.202Z,4.10
2019-06-20T10:42:30.882Z,3.58
2019-06-20T10:43:16.517Z,3.55
2019-06-20T10:44:01.687Z,3.92
2019-06-20T10:44:47.685Z,3.90
2019-06-20T10:45:33.641Z,3.77
2019-06-20T10:46:19.340Z,4.08
2019-06-20T10:47:05.135Z,4.10
2019-06-20T10:47:50.934Z,4.20
2019-06-20T10:48:36.811Z,3.90
2019-06-20T10:49:22.418Z,3.75
2019-06-20T10:50:08.595Z,3.47
2019-06-20T10:50:54.226Z,3.80
2019-06-20T10:51:42.389Z,4.20
2019-06-20T10:52:26.365Z,3.60
2019-06-20T10:53:11.894Z,3.80
2019-06-20T10:53:57.324Z,4.20
2019-06-20T10:54:43.308Z,4.17
2019-06-20T10:55:28.873Z,4.35
2019-06-20T10:56:14.312Z,4.45
2019-06-20T10:56:59.708Z,4.00
2019-06-20T10:57:46.687Z,4.17
2019-06-20T10:58:31.668Z,4.05
2019-06-20T10:59:17.283Z,4.08
2019-06-20T11:00:02.826Z,4.33
2019-06-20T11:00:48.375Z,3.90
2019-06-20T11:01:34.238Z,4.10
2019-06-20T11:02:20.121Z,4.00
2019-06-20T11:03:06.202Z,3.72
2019-06-20T11:03:51.944Z,4.20
2019-06-20T11:04:37.702Z,4.60
2019-06-20T11:05:23.276Z,4.30
2019-06-20T11:06:08.811Z,4.42
2019-06-20T11:06:54.421Z,4.40
2019-06-20T11:07:40.745Z,4.15
2019-06-20T11:08:26.793Z,4.10
2019-06-20T11:09:12.670Z,4.25
2019-06-20T11:09:58.218Z,3.92
2019-06-20T11:10:45.060Z,4.30
2019-06-20T11:11:30.579Z,4.70
2019-06-20T11:12:15.940Z,3.85
2019-06-20T11:13:01.900Z,4.40
2019-06-20T11:13:48.558Z,4.50
2019-06-20T11:14:34.196Z,4.20
2019-06-20T11:15:20.135Z,4.33
2019-06-20T11:16:05.435Z,4.58
2019-06-20T11:16:51.226Z,4.72
2019-06-20T11:17:38.572Z,4.40
2019-06-20T11:18:23.832Z,4.33
2019-06-20T11:19:09.391Z,4.10
2019-06-20T11:19:54.863Z,4.33
2019-06-20T11:20:41.037Z,4.90
2019-06-20T11:21:26.682Z,4.72
2019-06-20T11:22:12.227Z,4.05
2019-06-20T11:22:57.859Z,4.50
2019-06-20T11:23:43.388Z,4.45
2019-06-20T11:24:28.868Z,4.28
2019-06-20T11:25:14.722Z,4.53
2019-06-20T11:26:00.136Z,4.67
2019-06-20T11:26:46.006Z,4.00
2019-06-20T11:27:31.759Z,4.70
2019-06-20T11:28:17.351Z,4.28
2019-06-20T11:29:03.001Z,4.30
2019-06-20T11:29:48.460Z,4.30
2019-06-20T11:30:46.733Z,4.55
2019-06-20T11:31:20.583Z,4.70
2019-06-20T11:32:06.057Z,4.40
2019-06-20T11:32:51.536Z,4.47
2019-06-20T11:33:38.542Z,4.03
2019-06-20T11:34:23.395Z,4.58
2019-06-20T11:35:09.154Z,4.30
2019-06-20T11:35:54.551Z,4.75
2019-06-20T11:36:40.334Z,5.00
2019-06-20T11:37:25.981Z,4.30
2019-06-20T11:38:11.524Z,4.40
2019-06-20T11:38:57.092Z,4.08
2019-06-20T11:39:43.245Z,4.67
2019-06-20T11:40:29.565Z,4.45
2019-06-20T11:41:15.111Z,5.05
2019-06-20T11:42:00.353Z,4.95
2019-06-20T11:42:46.985Z,4.75
2019-06-20T11:43:34.618Z,4.50
2019-06-20T11:44:19.724Z,4.45
2019-06-20T11:45:05.925Z,5.05
2019-06-20T11:45:51.073Z,4.03
2019-06-20T11:46:37.009Z,5.10
2019-06-20T11:47:23.366Z,4.30
2019-06-20T11:48:08.974Z,4.80
2019-06-20T11:48:54.802Z,5.20
2019-06-20T11:49:40.735Z,4.60
2019-06-20T11:50:26.236Z,4.70
2019-06-20T11:51:12.083Z,4.83
2019-06-20T11:51:57.466Z,4.97
2019-06-20T11:52:45.638Z,5.25
2019-06-20T11:53:29.690Z,4.90
2019-06-20T11:54:15.082Z,4.85
2019-06-20T11:55:00.795Z,4.50
2019-06-20T11:55:46.430Z,5.00
2019-06-20T11:56:31.822Z,5.12
2019-06-20T11:57:17.229Z,4.90
2019-06-20T11:58:02.596Z,5.30
2019-06-20T11:58:48.230Z,5.37
2019-06-20T11:59:33.942Z,4.90
2019-06-20T12:00:20.059Z,4.75
2019-06-20T12:01:05.516Z,5.50
2019-06-20T12:01:51.218Z,4.85
2019-06-20T12:02:36.932Z,5.22
2019-06-20T12:03:22.804Z,4.53
2019-06-20T12:04:09.506Z,5.12
2019-06-20T12:04:54.865Z,4.85
2019-06-20T12:05:41.541Z,4.80
2019-06-20T12:06:27.644Z,4.97
2019-06-20T12:07:13.197Z,4.55
2019-06-20T12:07:58.518Z,4.92
2019-06-20T12:08:45.193Z,5.00
2019-06-20T12:09:30.888Z,4.30
2019-06-20T12:10:16.656Z,5.20
2019-06-20T12:11:02.458Z,4.95
2019-06-20T12:11:48.863Z,5.20
2019-06-20T12:12:34.751Z,4.50
2019-06-20T12:13:20.535Z,4.60
2019-06-20T12:14:05.844Z,5.00
2019-06-20T12:14:51.629Z,5.05
2019-06-20T12:15:38.034Z,5.12
2019-06-20T12:16:23.915Z,4.70
2019-06-20T12:17:09.704Z,4.75
2019-06-20T12:17:54.883Z,5.50
2019-06-20T12:18:41.490Z,5.00
2019-06-20T12:19:27.545Z,5.10
2019-06-20T12:20:13.226Z,5.15
2019-06-20T12:20:58.963Z,5.55
2019-06-20T12:21:44.778Z,4.83
2019-06-20T12:22:30.543Z,5.00
2019-06-20T12:23:16.478Z,5.35
2019-06-20T12:24:01.875Z,5.12
2019-06-20T12:24:48.821Z,4.50
2019-06-20T12:25:34.658Z,5.20
2019-06-20T12:26:20.231Z,5.22
2019-06-20T12:27:05.767Z,5.08
2019-06-20T12:27:51.537Z,5.75
2019-06-20T12:28:39.005Z,5.35
2019-06-20T12:29:23.532Z,5.72
2019-06-20T12:30:09.405Z,4.92
2019-06-20T12:30:55.027Z,5.50
2019-06-20T12:31:41.094Z,5.20
2019-06-20T12:32:26.892Z,5.30
2019-06-20T12:33:12.462Z,5.35
2019-06-20T12:33:57.701Z,5.22
2019-06-20T12:34:44.490Z,5.50
2019-06-20T12:35:30.123Z,5.70
2019-06-20T12:36:15.667Z,5.60
2019-06-20T12:37:01.308Z,5.83
2019-06-20T12:37:47.644Z,5.80
2019-06-20T12:38:33.769Z,5.83
2019-06-20T12:39:19.161Z,5.10
2019-06-20T12:40:04.698Z,5.00
2019-06-20T12:40:50.572Z,5.97
2019-06-20T12:41:36.623Z,5.53
2019-06-20T12:42:22.037Z,5.80
2019-06-20T12:43:07.928Z,5.42
2019-06-20T12:43:53.568Z,5.62
2019-06-20T12:44:40.072Z,5.28
2019-06-20T12:45:26.169Z,5.80
2019-06-20T12:46:11.709Z,5.90
2019-06-20T12:46:57.428Z,5.72
2019-06-20T12:47:43.834Z,5.72
2019-06-20T12:48:29.942Z,4.87
2019-06-20T12:49:15.652Z,5.60
2019-06-20T12:50:01.427Z,5.28
2019-06-20T12:50:47.617Z,5.72
2019-06-20T12:51:33.415Z,5.67
2019-06-20T12:52:19.171Z,5.90
2019-06-20T12:53:04.951Z,5.58
2019-06-20T12:53:50.931Z,5.28
2019-06-20T12:54:36.609Z,5.97
2019-06-20T12:55:22.228Z,5.75
2019-06-20T12:56:07.839Z,6.15
2019-06-20T12:56:53.500Z,5.55
2019-06-20T12:57:40.211Z,6.10
2019-06-20T12:58:25.338Z,6.00
2019-06-20T12:59:10.882Z,5.60
2019-06-20T12:59:56.351Z,5.58
2019-06-20T13:00:42.993Z,5.70
2019-06-20T13:01:36.838Z,5.58
2019-06-20T13:02:14.681Z,5.45
2019-06-20T13:03:00.146Z,5.80
2019-06-20T13:03:46.395Z,5.65
2019-06-20T13:04:32.170Z,5.60
2019-06-20T13:05:17.858Z,5.30
2019-06-20T13:06:03.326Z,5.70
2019-06-20T13:06:49.494Z,6.03
2019-06-20T13:07:35.194Z,5.62
2019-06-20T13:08:20.727Z,5.55
2019-06-20T13:09:06.904Z,6.20
2019-06-20T13:09:52.213Z,6.20
2019-06-20T13:10:38.633Z,5.58
2019-06-20T13:11:24.325Z,5.40
2019-06-20T13:12:09.929Z,5.33
2019-06-20T13:12:55.467Z,6.25
2019-06-20T13:13:42.124Z,6.03
2019-06-20T13:14:27.837Z,5.87
2019-06-20T13:15:13.610Z,5.20
2019-06-20T13:15:58.919Z,5.72
2019-06-20T13:16:45.967Z,5.30
2019-06-20T13:17:31.587Z,5.50
2019-06-20T13:18:17.484Z,5.70
2019-06-20T13:19:03.314Z,5.30
2019-06-20T13:19:48.886Z,5.60
2019-06-20T13:20:34.487Z,5.70
2019-06-20T13:21:20.273Z,5.53
2019-06-20T13:22:05.807Z,5.12
2019-06-20T13:22:51.184Z,5.50
2019-06-20T13:23:36.973Z,5.47
2019-06-20T13:24:22.990Z,5.30
2019-06-20T13:25:08.753Z,5.45
2019-06-20T13:25:53.919Z,5.20
2019-06-20T13:26:40.664Z,5.55
2019-06-20T13:27:26.249Z,5.28
2019-06-20T13:28:11.784Z,5.30
2019-06-20T13:29:04.153Z,5.45
2019-06-20T13:29:45.269Z,5.40
2019-06-20T13:30:31.073Z,5.42
2019-06-20T13:31:16.588Z,5.22
2019-06-20T13:32:04.552Z,4.60
2019-06-20T13:32:48.978Z,5.45
2019-06-20T13:33:34.646Z,4.97
2019-06-20T13:34:20.189Z,5.10
2019-06-20T13:35:06.422Z,5.30
2019-06-20T13:35:51.752Z,5.25
2019-06-20T13:36:38.157Z,5.58
2019-06-20T13:37:23.843Z,5.20
2019-06-20T13:38:09.383Z,5.58
2019-06-20T13:38:55.074Z,5.33
2019-06-20T13:39:41.597Z,5.00
2019-06-20T13:40:27.245Z,5.08
2019-06-20T13:41:12.813Z,5.15
2019-06-20T13:41:58.335Z,5.00
2019-06-20T13:42:44.225Z,4.65
2019-06-20T13:43:30.384Z,5.40
2019-06-20T13:44:16.054Z,5.25
2019-06-20T13:45:02.587Z,5.20
2019-06-20T13:45:48.188Z,5.20
2019-06-20T13:46:33.880Z,5.03
2019-06-20T13:47:19.571Z,5.03
2019-06-20T13:48:05.038Z,4.75
2019-06-20T13:48:51.126Z,4.97
2019-06-20T13:49:36.734Z,5.28
2019-06-20T13:50:22.587Z,5.00
2019-06-20T13:51:08.121Z,4.50
2019-06-20T13:51:53.511Z,4.90
2019-06-20T13:52:41.942Z,4.60
2019-06-20T13:53:25.762Z,4.58
2019-06-20T13:54:11.209Z,4.90
2019-06-20T13:54:56.993Z,4.40
2019-06-20T13:55:44.020Z,5.05
2019-06-20T13:56:29.021Z,4.80
2019-06-20T13:57:14.635Z,4.75
2019-06-20T13:57:59.905Z,4.47
2019-06-20T13:58:45.401Z,5.60
2019-06-20T13:59:31.123Z,4.50
2019-06-20T14:00:17.441Z,4.90
2019-06-20T14:01:02.834Z,4.55
2019-06-20T14:01:49.052Z,4.60
2019-06-20T14:02:34.458Z,4.40
2019-06-20T14:03:20.157Z,5.03
2019-06-20T14:04:05.771Z,5.40
2019-06-20T14:04:51.078Z,4.42
2019-06-20T14:05:36.385Z,4.42
2019-06-20T14:06:21.671Z,4.87
2019-06-20T14:07:07.210Z,4.72
2019-06-20T14:07:54.287Z,4.37
2019-06-20T14:08:39.264Z,4.78
2019-06-20T14:09:24.719Z,4.85
2019-06-20T14:10:10.897Z,5.22
2019-06-20T14:10:56.534Z,4.90
2019-06-20T14:11:43.155Z,4.42
2019-06-20T14:12:28.879Z,4.50
2019-06-20T14:13:19.303Z,4.92
2019-06-20T14:14:00.839Z,4.92
2019-06-20T14:14:47.791Z,4.62
2019-06-20T14:15:33.069Z,4.40
2019-06-20T14:16:18.836Z,4.28
2019-06-20T14:17:04.615Z,4.70
2019-06-20T14:17:50.334Z,4.85
2019-06-20T14:18:36.111Z,4.30
2019-06-20T14:19:21.964Z,4.75
2019-06-20T14:20:08.377Z,4.60
2019-06-20T14:20:55.178Z,4.83
2019-06-20T14:21:42.546Z,4.85
2019-06-20T14:22:27.721Z,4.40
2019-06-20T14:23:13.653Z,3.80
2019-06-20T14:23:58.799Z,4.67
2019-06-20T14:24:45.046Z,4.60
2019-06-20T14:25:34.064Z,4.25
2019-06-20T14:26:18.296Z,4.70
2019-06-20T14:27:05.502Z,4.10
2019-06-20T14:27:51.630Z,4.92
2019-06-20T14:28:37.574Z,4.70
2019-06-20T14:29:23.430Z,4.35
2019-06-20T14:30:12.224Z,4.37
2019-06-20T14:30:58.166Z,4.30
2019-06-20T14:31:45.447Z,4.35
2019-06-20T14:32:30.914Z,4.95
2019-06-20T14:33:16.847Z,4.00
2019-06-20T14:34:02.816Z,4.50
2019-06-20T14:34:50.245Z,4.67
2019-06-20T14:35:35.766Z,4.15
2019-06-20T14:36:21.657Z,4.30
2019-06-20T14:37:07.364Z,4.00
2019-06-20T14:37:53.305Z,4.08
2019-06-20T14:38:39.508Z,4.30
2019-06-20T14:39:25.621Z,4.10
2019-06-20T14:41:14.416Z,4.85
2019-06-20T14:41:59.918Z,4.30
2019-06-20T14:42:45.923Z,4.50
2019-06-20T14:43:31.650Z,4.37
2019-06-20T14:44:17.832Z,4.35
2019-06-20T14:45:03.476Z,4.50
2019-06-20T14:45:49.155Z,3.90
2019-06-20T14:46:34.686Z,4.35
2019-06-20T14:47:20.213Z,4.03
2019-06-20T14:48:05.745Z,4.45
2019-06-20T14:48:51.272Z,4.55
2019-06-20T14:49:37.128Z,4.03
2019-06-20T14:50:22.759Z,4.00
2019-06-20T14:51:08.345Z,4.28
2019-06-20T14:51:55.016Z,4.72
2019-06-20T14:52:40.043Z,4.28
2019-06-20T14:53:25.346Z,4.05
2019-06-20T14:54:10.797Z,3.90
2019-06-20T14:54:56.421Z,4.30
2019-06-20T14:55:44.270Z,4.45
2019-06-20T14:56:28.535Z,4.40
2019-06-20T14:57:14.125Z,4.12
2019-06-20T14:57:59.613Z,4.53